sensor_id;sensor_type;location;lat;lon;timestamp;P1;durP1;ratioP1;P2;durP2;ratioP2
25345;SDS011;13300;51.032;3.710;2023-01-15T00:01:26;8.95;;;1.73;;
25345;SDS011;13300;51.032;3.710;2023-01-15T00:03:53;8.35;;;1.98;;
25345;SDS011;13300;51.032;3.710;2023-01-15T00:06:21;11.00;;;2.05;;
25345;SDS011;13300;51.032;3.710;2023-01-15T00:08:53;15.77;;;1.55;;
25345;SDS011;13300;51.032;3.710;2023-01-15T00:11:21;11.43;;;1.75;;
25345;SDS011;13300;51.032;3.710;2023-01-15T00:13:50;11.95;;;1.85;;
25345;SDS011;13300;51.032;3.710;2023-01-15T00:16:18;13.43;;;2.65;;
25345;SDS011;13300;51.032;3.710;2023-01-15T00:18:54;7.18;;;1.38;;
25345;SDS011;13300;51.032;3.710;2023-01-15T00:21:25;11.27;;;1.70;;
25345;SDS011;13300;51.032;3.710;2023-01-15T00:23:51;14.52;;;2.17;;
25345;SDS011;13300;51.032;3.710;2023-01-15T00:26:37;8.10;;;1.27;;
25345;SDS011;13300;51.032;3.710;2023-01-15T00:29:22;9.95;;;1.73;;
25345;SDS011;13300;51.032;3.710;2023-01-15T00:32:02;9.68;;;1.70;;
25345;SDS011;13300;51.032;3.710;2023-01-15T00:34:32;9.00;;;1.73;;
25345;SDS011;13300;51.032;3.710;2023-01-15T00:36:58;7.68;;;1.80;;
25345;SDS011;13300;51.032;3.710;2023-01-15T00:39:24;9.43;;;1.60;;
25345;SDS011;13300;51.032;3.710;2023-01-15T00:41:51;12.43;;;1.95;;
25345;SDS011;13300;51.032;3.710;2023-01-15T00:44:19;12.80;;;2.00;;
25345;SDS011;13300;51.032;3.710;2023-01-15T00:46:45;7.38;;;1.63;;
25345;SDS011;13300;51.032;3.710;2023-01-15T00:49:11;11.27;;;1.90;;
25345;SDS011;13300;51.032;3.710;2023-01-15T00:51:37;15.82;;;1.80;;
25345;SDS011;13300;51.032;3.710;2023-01-15T00:54:03;11.90;;;1.83;;
25345;SDS011;13300;51.032;3.710;2023-01-15T00:56:30;13.82;;;2.08;;
25345;SDS011;13300;51.032;3.710;2023-01-15T01:01:27;9.50;;;1.83;;
25345;SDS011;13300;51.032;3.710;2023-01-15T01:03:53;11.23;;;1.67;;
25345;SDS011;13300;51.032;3.710;2023-01-15T01:06:19;13.05;;;2.40;;
25345;SDS011;13300;51.032;3.710;2023-01-15T01:08:46;14.15;;;1.90;;
25345;SDS011;13300;51.032;3.710;2023-01-15T01:11:16;12.57;;;1.77;;
25345;SDS011;13300;51.032;3.710;2023-01-15T01:13:44;12.65;;;1.73;;
25345;SDS011;13300;51.032;3.710;2023-01-15T01:16:21;10.85;;;1.92;;
25345;SDS011;13300;51.032;3.710;2023-01-15T01:18:52;13.60;;;1.77;;
25345;SDS011;13300;51.032;3.710;2023-01-15T01:21:22;13.10;;;1.98;;
25345;SDS011;13300;51.032;3.710;2023-01-15T01:23:51;7.07;;;1.50;;
25345;SDS011;13300;51.032;3.710;2023-01-15T01:26:19;9.48;;;1.98;;
25345;SDS011;13300;51.032;3.710;2023-01-15T01:28:49;16.52;;;2.05;;
25345;SDS011;13300;51.032;3.710;2023-01-15T01:31:22;11.45;;;1.98;;
25345;SDS011;13300;51.032;3.710;2023-01-15T01:33:49;14.73;;;2.53;;
25345;SDS011;13300;51.032;3.710;2023-01-15T01:36:16;12.32;;;2.78;;
25345;SDS011;13300;51.032;3.710;2023-01-15T01:38:42;10.32;;;2.85;;
25345;SDS011;13300;51.032;3.710;2023-01-15T01:41:14;13.48;;;2.80;;
25345;SDS011;13300;51.032;3.710;2023-01-15T01:46:55;17.98;;;2.70;;
25345;SDS011;13300;51.032;3.710;2023-01-15T01:49:30;13.27;;;2.70;;
25345;SDS011;13300;51.032;3.710;2023-01-15T01:52:07;13.75;;;3.10;;
25345;SDS011;13300;51.032;3.710;2023-01-15T01:54:37;10.80;;;2.58;;
25345;SDS011;13300;51.032;3.710;2023-01-15T01:57:04;16.17;;;2.20;;
25345;SDS011;13300;51.032;3.710;2023-01-15T01:59:32;13.00;;;2.35;;
25345;SDS011;13300;51.032;3.710;2023-01-15T02:01:59;13.32;;;1.98;;
25345;SDS011;13300;51.032;3.710;2023-01-15T02:04:25;12.75;;;2.15;;
25345;SDS011;13300;51.032;3.710;2023-01-15T02:06:53;15.63;;;2.40;;
25345;SDS011;13300;51.032;3.710;2023-01-15T02:09:22;11.10;;;1.77;;
25345;SDS011;13300;51.032;3.710;2023-01-15T02:11:50;13.00;;;2.20;;
25345;SDS011;13300;51.032;3.710;2023-01-15T02:14:24;11.30;;;2.47;;
25345;SDS011;13300;51.032;3.710;2023-01-15T02:22:18;18.60;;;2.25;;
25345;SDS011;13300;51.032;3.710;2023-01-15T02:25:04;13.68;;;1.98;;
25345;SDS011;13300;51.032;3.710;2023-01-15T02:27:55;11.57;;;2.08;;
25345;SDS011;13300;51.032;3.710;2023-01-15T02:30:33;13.00;;;2.05;;
25345;SDS011;13300;51.032;3.710;2023-01-15T02:33:11;7.90;;;2.28;;
25345;SDS011;13300;51.032;3.710;2023-01-15T02:35:51;9.57;;;1.98;;
25345;SDS011;13300;51.032;3.710;2023-01-15T02:38:25;10.38;;;1.70;;
25345;SDS011;13300;51.032;3.710;2023-01-15T02:40:58;7.95;;;1.70;;
25345;SDS011;13300;51.032;3.710;2023-01-15T02:43:28;12.18;;;2.22;;
25345;SDS011;13300;51.032;3.710;2023-01-15T02:45:59;12.57;;;1.65;;
25345;SDS011;13300;51.032;3.710;2023-01-15T02:48:27;15.60;;;2.72;;
25345;SDS011;13300;51.032;3.710;2023-01-15T02:50:59;16.67;;;2.17;;
25345;SDS011;13300;51.032;3.710;2023-01-15T02:53:30;14.52;;;2.15;;
25345;SDS011;13300;51.032;3.710;2023-01-15T02:55:58;7.50;;;1.48;;
25345;SDS011;13300;51.032;3.710;2023-01-15T02:58:30;12.65;;;1.70;;
25345;SDS011;13300;51.032;3.710;2023-01-15T03:01:04;16.33;;;1.95;;
25345;SDS011;13300;51.032;3.710;2023-01-15T03:06:08;17.52;;;2.72;;
25345;SDS011;13300;51.032;3.710;2023-01-15T03:08:56;15.82;;;1.77;;
25345;SDS011;13300;51.032;3.710;2023-01-15T03:11:26;13.23;;;1.75;;
25345;SDS011;13300;51.032;3.710;2023-01-15T03:14:03;7.63;;;1.70;;
25345;SDS011;13300;51.032;3.710;2023-01-15T03:16:44;9.07;;;1.83;;
25345;SDS011;13300;51.032;3.710;2023-01-15T03:19:26;11.90;;;1.63;;
25345;SDS011;13300;51.032;3.710;2023-01-15T03:24:46;11.80;;;1.50;;
25345;SDS011;13300;51.032;3.710;2023-01-15T03:27:17;8.10;;;1.90;;
25345;SDS011;13300;51.032;3.710;2023-01-15T03:29:50;13.40;;;2.00;;
25345;SDS011;13300;51.032;3.710;2023-01-15T03:32:38;9.07;;;2.10;;
25345;SDS011;13300;51.032;3.710;2023-01-15T03:35:04;10.93;;;1.55;;
25345;SDS011;13300;51.032;3.710;2023-01-15T03:40:00;8.98;;;1.88;;
25345;SDS011;13300;51.032;3.710;2023-01-15T03:42:35;13.68;;;2.05;;
25345;SDS011;13300;51.032;3.710;2023-01-15T03:45:34;9.38;;;1.65;;
25345;SDS011;13300;51.032;3.710;2023-01-15T03:48:04;11.88;;;1.83;;
25345;SDS011;13300;51.032;3.710;2023-01-15T03:50:54;13.88;;;1.98;;
25345;SDS011;13300;51.032;3.710;2023-01-15T03:53:50;11.48;;;2.38;;
25345;SDS011;13300;51.032;3.710;2023-01-15T03:56:23;10.00;;;2.25;;
25345;SDS011;13300;51.032;3.710;2023-01-15T03:59:07;12.27;;;2.08;;
25345;SDS011;13300;51.032;3.710;2023-01-15T04:01:39;8.77;;;1.65;;
25345;SDS011;13300;51.032;3.710;2023-01-15T04:04:08;13.57;;;1.88;;
25345;SDS011;13300;51.032;3.710;2023-01-15T04:06:35;14.73;;;1.95;;
25345;SDS011;13300;51.032;3.710;2023-01-15T04:09:09;13.23;;;1.85;;
25345;SDS011;13300;51.032;3.710;2023-01-15T04:11:37;9.60;;;2.17;;
25345;SDS011;13300;51.032;3.710;2023-01-15T04:14:05;12.45;;;1.95;;
25345;SDS011;13300;51.032;3.710;2023-01-15T04:16:32;10.80;;;1.73;;
25345;SDS011;13300;51.032;3.710;2023-01-15T04:18:59;12.73;;;1.88;;
25345;SDS011;13300;51.032;3.710;2023-01-15T04:21:25;12.07;;;1.83;;
25345;SDS011;13300;51.032;3.710;2023-01-15T04:23:51;13.30;;;1.88;;
25345;SDS011;13300;51.032;3.710;2023-01-15T04:26:24;14.18;;;1.92;;
25345;SDS011;13300;51.032;3.710;2023-01-15T04:28:52;11.55;;;1.92;;
25345;SDS011;13300;51.032;3.710;2023-01-15T04:31:18;10.75;;;2.05;;
25345;SDS011;13300;51.032;3.710;2023-01-15T04:33:44;11.63;;;1.77;;
25345;SDS011;13300;51.032;3.710;2023-01-15T04:36:13;12.25;;;1.77;;
25345;SDS011;13300;51.032;3.710;2023-01-15T04:38:48;11.93;;;2.33;;
25345;SDS011;13300;51.032;3.710;2023-01-15T04:41:14;14.23;;;1.88;;
25345;SDS011;13300;51.032;3.710;2023-01-15T04:43:58;10.73;;;1.98;;
25345;SDS011;13300;51.032;3.710;2023-01-15T04:46:37;7.95;;;1.80;;
25345;SDS011;13300;51.032;3.710;2023-01-15T04:49:11;9.75;;;1.67;;
25345;SDS011;13300;51.032;3.710;2023-01-15T04:51:41;8.85;;;1.42;;
25345;SDS011;13300;51.032;3.710;2023-01-15T04:54:13;12.48;;;2.13;;
25345;SDS011;13300;51.032;3.710;2023-01-15T04:56:44;8.02;;;1.65;;
25345;SDS011;13300;51.032;3.710;2023-01-15T04:59:22;14.40;;;2.58;;
25345;SDS011;13300;51.032;3.710;2023-01-15T05:01:50;14.20;;;2.40;;
25345;SDS011;13300;51.032;3.710;2023-01-15T05:04:19;10.10;;;1.40;;
25345;SDS011;13300;51.032;3.710;2023-01-15T05:06:45;13.93;;;2.17;;
25345;SDS011;13300;51.032;3.710;2023-01-15T05:09:13;12.55;;;1.80;;
25345;SDS011;13300;51.032;3.710;2023-01-15T05:11:42;13.52;;;2.05;;
25345;SDS011;13300;51.032;3.710;2023-01-15T05:14:10;13.02;;;1.70;;
25345;SDS011;13300;51.032;3.710;2023-01-15T05:16:36;11.00;;;1.77;;
25345;SDS011;13300;51.032;3.710;2023-01-15T05:19:05;10.63;;;1.80;;
25345;SDS011;13300;51.032;3.710;2023-01-15T05:21:39;10.18;;;1.55;;
25345;SDS011;13300;51.032;3.710;2023-01-15T05:24:06;7.35;;;1.42;;
25345;SDS011;13300;51.032;3.710;2023-01-15T05:26:37;5.63;;;1.25;;
25345;SDS011;13300;51.032;3.710;2023-01-15T05:29:05;6.15;;;1.50;;
25345;SDS011;13300;51.032;3.710;2023-01-15T05:31:31;10.77;;;1.40;;
25345;SDS011;13300;51.032;3.710;2023-01-15T05:33:58;13.20;;;1.90;;
25345;SDS011;13300;51.032;3.710;2023-01-15T05:36:25;10.07;;;1.58;;
25345;SDS011;13300;51.032;3.710;2023-01-15T05:38:55;12.10;;;1.77;;
25345;SDS011;13300;51.032;3.710;2023-01-15T05:41:25;9.23;;;1.35;;
25345;SDS011;13300;51.032;3.710;2023-01-15T05:44:10;12.30;;;1.95;;
25345;SDS011;13300;51.032;3.710;2023-01-15T05:46:37;6.80;;;1.45;;
25345;SDS011;13300;51.032;3.710;2023-01-15T05:49:05;6.57;;;1.73;;
25345;SDS011;13300;51.032;3.710;2023-01-15T05:51:34;11.50;;;1.58;;
25345;SDS011;13300;51.032;3.710;2023-01-15T05:54:04;13.65;;;1.65;;
25345;SDS011;13300;51.032;3.710;2023-01-15T05:56:36;9.05;;;1.50;;
25345;SDS011;13300;51.032;3.710;2023-01-15T05:59:05;6.22;;;1.50;;
25345;SDS011;13300;51.032;3.710;2023-01-15T06:01:32;8.65;;;1.35;;
25345;SDS011;13300;51.032;3.710;2023-01-15T06:04:02;4.65;;;1.35;;
25345;SDS011;13300;51.032;3.710;2023-01-15T06:06:31;10.40;;;1.35;;
25345;SDS011;13300;51.032;3.710;2023-01-15T06:08:59;7.45;;;1.55;;
25345;SDS011;13300;51.032;3.710;2023-01-15T06:11:25;5.97;;;1.55;;
25345;SDS011;13300;51.032;3.710;2023-01-15T06:13:51;9.52;;;1.30;;
25345;SDS011;13300;51.032;3.710;2023-01-15T06:16:19;7.45;;;1.25;;
25345;SDS011;13300;51.032;3.710;2023-01-15T06:18:45;12.60;;;2.08;;
25345;SDS011;13300;51.032;3.710;2023-01-15T06:21:11;9.57;;;1.83;;
25345;SDS011;13300;51.032;3.710;2023-01-15T06:23:38;10.82;;;2.03;;
25345;SDS011;13300;51.032;3.710;2023-01-15T06:26:09;12.32;;;2.00;;
25345;SDS011;13300;51.032;3.710;2023-01-15T06:28:37;8.77;;;2.08;;
25345;SDS011;13300;51.032;3.710;2023-01-15T06:31:04;10.73;;;1.95;;
25345;SDS011;13300;51.032;3.710;2023-01-15T06:33:31;11.90;;;1.70;;
25345;SDS011;13300;51.032;3.710;2023-01-15T06:35:57;11.30;;;1.98;;
25345;SDS011;13300;51.032;3.710;2023-01-15T06:38:26;8.27;;;1.52;;
25345;SDS011;13300;51.032;3.710;2023-01-15T06:40:52;10.68;;;1.83;;
25345;SDS011;13300;51.032;3.710;2023-01-15T06:43:17;8.00;;;1.55;;
25345;SDS011;13300;51.032;3.710;2023-01-15T06:46:02;7.43;;;2.08;;
25345;SDS011;13300;51.032;3.710;2023-01-15T06:48:46;11.32;;;1.92;;
25345;SDS011;13300;51.032;3.710;2023-01-15T06:51:14;6.65;;;1.58;;
25345;SDS011;13300;51.032;3.710;2023-01-15T06:53:43;8.80;;;2.22;;
25345;SDS011;13300;51.032;3.710;2023-01-15T06:56:09;12.82;;;2.30;;
25345;SDS011;13300;51.032;3.710;2023-01-15T06:58:35;8.75;;;1.52;;
25345;SDS011;13300;51.032;3.710;2023-01-15T07:01:05;11.48;;;1.80;;
25345;SDS011;13300;51.032;3.710;2023-01-15T07:03:40;13.15;;;1.83;;
25345;SDS011;13300;51.032;3.710;2023-01-15T07:06:06;23.08;;;2.30;;
25345;SDS011;13300;51.032;3.710;2023-01-15T07:08:34;12.95;;;1.52;;
25345;SDS011;13300;51.032;3.710;2023-01-15T07:11:15;14.45;;;2.30;;
25345;SDS011;13300;51.032;3.710;2023-01-15T07:13:43;10.27;;;1.90;;
25345;SDS011;13300;51.032;3.710;2023-01-15T07:16:09;11.30;;;1.88;;
25345;SDS011;13300;51.032;3.710;2023-01-15T07:18:53;17.58;;;2.03;;
25345;SDS011;13300;51.032;3.710;2023-01-15T07:21:19;10.90;;;1.75;;
25345;SDS011;13300;51.032;3.710;2023-01-15T07:23:53;10.65;;;2.47;;
25345;SDS011;13300;51.032;3.710;2023-01-15T07:26:20;7.20;;;1.50;;
25345;SDS011;13300;51.032;3.710;2023-01-15T07:28:49;14.65;;;2.10;;
25345;SDS011;13300;51.032;3.710;2023-01-15T07:31:16;10.27;;;1.73;;
25345;SDS011;13300;51.032;3.710;2023-01-15T07:33:44;8.48;;;1.92;;
25345;SDS011;13300;51.032;3.710;2023-01-15T07:36:13;12.10;;;1.65;;
25345;SDS011;13300;51.032;3.710;2023-01-15T07:38:41;13.85;;;2.13;;
25345;SDS011;13300;51.032;3.710;2023-01-15T07:41:07;8.23;;;1.52;;
25345;SDS011;13300;51.032;3.710;2023-01-15T07:43:51;11.00;;;1.70;;
25345;SDS011;13300;51.032;3.710;2023-01-15T07:46:36;12.80;;;1.73;;
25345;SDS011;13300;51.032;3.710;2023-01-15T07:49:20;9.48;;;1.83;;
25345;SDS011;13300;51.032;3.710;2023-01-15T07:52:04;11.43;;;2.10;;
25345;SDS011;13300;51.032;3.710;2023-01-15T07:54:30;10.82;;;1.40;;
25345;SDS011;13300;51.032;3.710;2023-01-15T07:56:58;8.63;;;1.58;;
25345;SDS011;13300;51.032;3.710;2023-01-15T07:59:32;13.27;;;1.63;;
25345;SDS011;13300;51.032;3.710;2023-01-15T08:01:58;12.75;;;2.28;;
25345;SDS011;13300;51.032;3.710;2023-01-15T08:04:25;10.18;;;1.75;;
25345;SDS011;13300;51.032;3.710;2023-01-15T08:06:55;11.43;;;1.70;;
25345;SDS011;13300;51.032;3.710;2023-01-15T08:09:26;10.80;;;1.98;;
25345;SDS011;13300;51.032;3.710;2023-01-15T08:11:52;12.05;;;2.30;;
25345;SDS011;13300;51.032;3.710;2023-01-15T08:14:36;9.93;;;1.67;;
25345;SDS011;13300;51.032;3.710;2023-01-15T08:17:23;10.88;;;1.95;;
25345;SDS011;13300;51.032;3.710;2023-01-15T08:19:51;13.32;;;2.20;;
25345;SDS011;13300;51.032;3.710;2023-01-15T08:22:20;6.82;;;1.92;;
25345;SDS011;13300;51.032;3.710;2023-01-15T08:24:45;11.52;;;2.10;;
25345;SDS011;13300;51.032;3.710;2023-01-15T08:27:11;13.80;;;2.20;;
25345;SDS011;13300;51.032;3.710;2023-01-15T08:29:47;10.05;;;2.53;;
25345;SDS011;13300;51.032;3.710;2023-01-15T08:32:16;16.73;;;2.63;;
25345;SDS011;13300;51.032;3.710;2023-01-15T08:34:44;14.55;;;3.03;;
25345;SDS011;13300;51.032;3.710;2023-01-15T08:37:10;15.27;;;3.55;;
25345;SDS011;13300;51.032;3.710;2023-01-15T08:39:38;11.48;;;2.60;;
25345;SDS011;13300;51.032;3.710;2023-01-15T08:42:04;10.52;;;2.25;;
25345;SDS011;13300;51.032;3.710;2023-01-15T08:44:32;9.10;;;2.50;;
25345;SDS011;13300;51.032;3.710;2023-01-15T08:46:58;7.60;;;1.83;;
25345;SDS011;13300;51.032;3.710;2023-01-15T08:49:24;16.15;;;1.92;;
25345;SDS011;13300;51.032;3.710;2023-01-15T08:51:50;10.43;;;2.15;;
25345;SDS011;13300;51.032;3.710;2023-01-15T08:54:17;9.38;;;1.83;;
25345;SDS011;13300;51.032;3.710;2023-01-15T08:56:48;11.52;;;2.10;;
25345;SDS011;13300;51.032;3.710;2023-01-15T08:59:14;9.23;;;2.17;;
25345;SDS011;13300;51.032;3.710;2023-01-15T09:01:40;8.05;;;1.92;;
25345;SDS011;13300;51.032;3.710;2023-01-15T09:04:06;11.90;;;2.13;;
25345;SDS011;13300;51.032;3.710;2023-01-15T09:06:39;10.77;;;2.00;;
25345;SDS011;13300;51.032;3.710;2023-01-15T09:09:05;9.73;;;2.13;;
25345;SDS011;13300;51.032;3.710;2023-01-15T09:11:34;11.18;;;2.13;;
25345;SDS011;13300;51.032;3.710;2023-01-15T09:14:12;10.85;;;2.60;;
25345;SDS011;13300;51.032;3.710;2023-01-15T09:16:39;10.35;;;2.38;;
25345;SDS011;13300;51.032;3.710;2023-01-15T09:19:08;7.60;;;1.85;;
25345;SDS011;13300;51.032;3.710;2023-01-15T09:21:37;8.95;;;1.70;;
25345;SDS011;13300;51.032;3.710;2023-01-15T09:24:03;12.13;;;2.20;;
25345;SDS011;13300;51.032;3.710;2023-01-15T09:28:57;10.40;;;1.58;;
25345;SDS011;13300;51.032;3.710;2023-01-15T09:31:24;14.70;;;1.90;;
25345;SDS011;13300;51.032;3.710;2023-01-15T09:33:50;5.65;;;1.70;;
25345;SDS011;13300;51.032;3.710;2023-01-15T09:36:26;9.15;;;1.30;;
25345;SDS011;13300;51.032;3.710;2023-01-15T09:38:59;7.07;;;1.30;;
25345;SDS011;13300;51.032;3.710;2023-01-15T09:41:29;10.73;;;2.03;;
25345;SDS011;13300;51.032;3.710;2023-01-15T09:47:34;5.07;;;1.27;;
25345;SDS011;13300;51.032;3.710;2023-01-15T09:55:26;4.30;;;1.17;;
25345;SDS011;13300;51.032;3.710;2023-01-15T09:57:55;3.50;;;1.13;;
25345;SDS011;13300;51.032;3.710;2023-01-15T10:00:24;4.25;;;1.10;;
25345;SDS011;13300;51.032;3.710;2023-01-15T10:02:58;6.70;;;1.08;;
25345;SDS011;13300;51.032;3.710;2023-01-15T10:05:47;6.00;;;1.08;;
25345;SDS011;13300;51.032;3.710;2023-01-15T10:08:23;4.63;;;0.95;;
25345;SDS011;13300;51.032;3.710;2023-01-15T10:11:21;2.90;;;1.15;;
25345;SDS011;13300;51.032;3.710;2023-01-15T10:14:33;2.92;;;0.70;;
25345;SDS011;13300;51.032;3.710;2023-01-15T10:17:06;3.53;;;1.08;;
25345;SDS011;13300;51.032;3.710;2023-01-15T10:19:42;2.60;;;1.10;;
25345;SDS011;13300;51.032;3.710;2023-01-15T10:22:15;3.85;;;1.35;;
25345;SDS011;13300;51.032;3.710;2023-01-15T10:25:15;8.63;;;1.30;;
25345;SDS011;13300;51.032;3.710;2023-01-15T10:27:46;3.92;;;1.00;;
25345;SDS011;13300;51.032;3.710;2023-01-15T10:36:03;5.47;;;1.10;;
25345;SDS011;13300;51.032;3.710;2023-01-15T10:46:48;4.32;;;1.38;;
25345;SDS011;13300;51.032;3.710;2023-01-15T10:49:25;7.57;;;1.30;;
25345;SDS011;13300;51.032;3.710;2023-01-15T10:52:07;6.28;;;1.42;;
25345;SDS011;13300;51.032;3.710;2023-01-15T10:54:59;4.75;;;1.30;;
25345;SDS011;13300;51.032;3.710;2023-01-15T11:01:17;6.05;;;1.52;;
25345;SDS011;13300;51.032;3.710;2023-01-15T11:03:47;7.05;;;1.55;;
25345;SDS011;13300;51.032;3.710;2023-01-15T11:06:29;4.85;;;1.23;;
25345;SDS011;13300;51.032;3.710;2023-01-15T11:09:02;6.40;;;1.83;;
25345;SDS011;13300;51.032;3.710;2023-01-15T11:14:54;8.05;;;1.95;;
25345;SDS011;13300;51.032;3.710;2023-01-15T11:18:06;9.87;;;1.60;;
25345;SDS011;13300;51.032;3.710;2023-01-15T11:21:00;5.07;;;1.25;;
25345;SDS011;13300;51.032;3.710;2023-01-15T11:23:27;9.77;;;1.45;;
25345;SDS011;13300;51.032;3.710;2023-01-15T11:26:02;6.25;;;1.33;;
25345;SDS011;13300;51.032;3.710;2023-01-15T11:28:34;11.73;;;1.98;;
25345;SDS011;13300;51.032;3.710;2023-01-15T11:31:07;5.05;;;1.27;;
25345;SDS011;13300;51.032;3.710;2023-01-15T11:33:35;4.57;;;1.25;;
25345;SDS011;13300;51.032;3.710;2023-01-15T11:36:21;5.90;;;1.40;;
25345;SDS011;13300;51.032;3.710;2023-01-15T11:38:52;3.55;;;1.30;;
25345;SDS011;13300;51.032;3.710;2023-01-15T11:41:23;10.02;;;1.40;;
25345;SDS011;13300;51.032;3.710;2023-01-15T11:44:28;4.77;;;1.27;;
25345;SDS011;13300;51.032;3.710;2023-01-15T11:47:15;7.18;;;1.67;;
25345;SDS011;13300;51.032;3.710;2023-01-15T11:50:00;9.68;;;1.50;;
25345;SDS011;13300;51.032;3.710;2023-01-15T11:52:52;6.25;;;1.30;;
25345;SDS011;13300;51.032;3.710;2023-01-15T11:55:27;5.35;;;1.45;;
25345;SDS011;13300;51.032;3.710;2023-01-15T11:57:53;7.30;;;1.40;;
25345;SDS011;13300;51.032;3.710;2023-01-15T12:03:04;4.50;;;1.30;;
25345;SDS011;13300;51.032;3.710;2023-01-15T12:06:00;6.20;;;1.77;;
25345;SDS011;13300;51.032;3.710;2023-01-15T12:13:58;4.43;;;1.35;;
25345;SDS011;13300;51.032;3.710;2023-01-15T12:19:21;5.63;;;1.40;;
25345;SDS011;13300;51.032;3.710;2023-01-15T12:22:03;3.97;;;1.17;;
25345;SDS011;13300;51.032;3.710;2023-01-15T12:32:49;6.32;;;1.67;;
25345;SDS011;13300;51.032;3.710;2023-01-15T12:35:44;8.13;;;1.45;;
25345;SDS011;13300;51.032;3.710;2023-01-15T12:38:26;7.32;;;2.13;;
25345;SDS011;13300;51.032;3.710;2023-01-15T12:41:03;7.60;;;2.10;;
25345;SDS011;13300;51.032;3.710;2023-01-15T12:43:35;5.90;;;1.30;;
25345;SDS011;13300;51.032;3.710;2023-01-15T12:46:26;5.85;;;1.40;;
25345;SDS011;13300;51.032;3.710;2023-01-15T12:49:08;7.07;;;1.50;;
25345;SDS011;13300;51.032;3.710;2023-01-15T12:52:09;11.57;;;2.08;;
25345;SDS011;13300;51.032;3.710;2023-01-15T12:54:48;4.65;;;1.60;;
25345;SDS011;13300;51.032;3.710;2023-01-15T12:57:33;4.90;;;1.42;;
25345;SDS011;13300;51.032;3.710;2023-01-15T13:02:39;6.93;;;1.15;;
25345;SDS011;13300;51.032;3.710;2023-01-15T13:05:25;8.98;;;1.58;;
25345;SDS011;13300;51.032;3.710;2023-01-15T13:11:04;3.00;;;0.70;;
25345;SDS011;13300;51.032;3.710;2023-01-15T13:13:32;4.75;;;1.05;;
25345;SDS011;13300;51.032;3.710;2023-01-15T13:21:32;3.88;;;0.90;;
25345;SDS011;13300;51.032;3.710;2023-01-15T13:32:23;2.53;;;0.98;;
25345;SDS011;13300;51.032;3.710;2023-01-15T13:35:25;2.85;;;1.00;;
25345;SDS011;13300;51.032;3.710;2023-01-15T13:38:02;4.47;;;0.90;;
25345;SDS011;13300;51.032;3.710;2023-01-15T13:40:40;4.07;;;1.10;;
25345;SDS011;13300;51.032;3.710;2023-01-15T13:43:20;1.83;;;0.90;;
25345;SDS011;13300;51.032;3.710;2023-01-15T13:46:22;3.17;;;0.80;;
25345;SDS011;13300;51.032;3.710;2023-01-15T13:48:48;2.30;;;0.77;;
25345;SDS011;13300;51.032;3.710;2023-01-15T13:51:28;5.50;;;1.00;;
25345;SDS011;13300;51.032;3.710;2023-01-15T13:54:03;2.63;;;0.85;;
25345;SDS011;13300;51.032;3.710;2023-01-15T13:56:34;6.07;;;1.10;;
25345;SDS011;13300;51.032;3.710;2023-01-15T13:59:02;2.15;;;0.82;;
25345;SDS011;13300;51.032;3.710;2023-01-15T14:01:34;2.88;;;1.30;;
25345;SDS011;13300;51.032;3.710;2023-01-15T14:04:03;6.25;;;1.63;;
25345;SDS011;13300;51.032;3.710;2023-01-15T14:06:38;3.93;;;1.10;;
25345;SDS011;13300;51.032;3.710;2023-01-15T14:14:49;4.95;;;1.45;;
25345;SDS011;13300;51.032;3.710;2023-01-15T14:31:40;4.72;;;1.65;;
25345;SDS011;13300;51.032;3.710;2023-01-15T14:36:45;6.40;;;1.70;;
25345;SDS011;13300;51.032;3.710;2023-01-15T14:42:10;2.35;;;1.15;;
25345;SDS011;13300;51.032;3.710;2023-01-15T14:47:48;5.18;;;1.20;;
25345;SDS011;13300;51.032;3.710;2023-01-15T14:50:23;5.72;;;1.30;;
25345;SDS011;13300;51.032;3.710;2023-01-15T14:52:53;5.82;;;1.30;;
25345;SDS011;13300;51.032;3.710;2023-01-15T14:55:22;4.18;;;1.38;;
25345;SDS011;13300;51.032;3.710;2023-01-15T15:01:28;6.13;;;1.92;;
25345;SDS011;13300;51.032;3.710;2023-01-15T15:04:19;6.53;;;1.38;;
25345;SDS011;13300;51.032;3.710;2023-01-15T15:07:16;3.35;;;1.10;;
25345;SDS011;13300;51.032;3.710;2023-01-15T15:09:57;7.38;;;1.60;;
25345;SDS011;13300;51.032;3.710;2023-01-15T15:18:06;4.43;;;1.30;;
25345;SDS011;13300;51.032;3.710;2023-01-15T15:25:47;5.25;;;1.08;;
25345;SDS011;13300;51.032;3.710;2023-01-15T15:28:27;3.58;;;1.48;;
25345;SDS011;13300;51.032;3.710;2023-01-15T15:30:57;3.05;;;1.10;;
25345;SDS011;13300;51.032;3.710;2023-01-15T15:33:26;5.30;;;1.02;;
25345;SDS011;13300;51.032;3.710;2023-01-15T15:36:01;2.95;;;1.08;;
25345;SDS011;13300;51.032;3.710;2023-01-15T15:38:28;2.42;;;1.00;;
25345;SDS011;13300;51.032;3.710;2023-01-15T15:40:55;3.53;;;1.40;;
25345;SDS011;13300;51.032;3.710;2023-01-15T15:46:34;5.22;;;1.30;;
25345;SDS011;13300;51.032;3.710;2023-01-15T15:49:19;5.10;;;1.30;;
25345;SDS011;13300;51.032;3.710;2023-01-15T15:56:55;4.85;;;1.23;;
25345;SDS011;13300;51.032;3.710;2023-01-15T15:59:37;5.57;;;1.40;;
25345;SDS011;13300;51.032;3.710;2023-01-15T16:02:20;4.10;;;1.50;;
25345;SDS011;13300;51.032;3.710;2023-01-15T16:05:18;2.47;;;1.00;;
25345;SDS011;13300;51.032;3.710;2023-01-15T16:08:07;3.60;;;1.15;;
25345;SDS011;13300;51.032;3.710;2023-01-15T16:10:41;7.85;;;1.10;;
25345;SDS011;13300;51.032;3.710;2023-01-15T16:13:20;3.17;;;0.98;;
25345;SDS011;13300;51.032;3.710;2023-01-15T16:15:52;4.20;;;1.00;;
25345;SDS011;13300;51.032;3.710;2023-01-15T16:18:37;4.30;;;1.55;;
25345;SDS011;13300;51.032;3.710;2023-01-15T16:21:15;4.45;;;0.80;;
25345;SDS011;13300;51.032;3.710;2023-01-15T16:23:58;2.92;;;1.45;;
25345;SDS011;13300;51.032;3.710;2023-01-15T16:29:15;2.22;;;0.82;;
25345;SDS011;13300;51.032;3.710;2023-01-15T16:31:49;5.55;;;1.30;;
25345;SDS011;13300;51.032;3.710;2023-01-15T16:34:23;2.90;;;1.80;;
25345;SDS011;13300;51.032;3.710;2023-01-15T16:36:56;6.20;;;1.45;;
25345;SDS011;13300;51.032;3.710;2023-01-15T16:41:54;4.93;;;1.65;;
25345;SDS011;13300;51.032;3.710;2023-01-15T16:44:23;5.65;;;2.00;;
25345;SDS011;13300;51.032;3.710;2023-01-15T16:46:55;4.80;;;1.67;;
25345;SDS011;13300;51.032;3.710;2023-01-15T16:49:30;4.55;;;1.65;;
25345;SDS011;13300;51.032;3.710;2023-01-15T16:52:00;5.93;;;1.83;;
25345;SDS011;13300;51.032;3.710;2023-01-15T16:57:03;3.35;;;1.90;;
25345;SDS011;13300;51.032;3.710;2023-01-15T17:02:54;8.50;;;2.22;;
25345;SDS011;13300;51.032;3.710;2023-01-15T17:05:27;7.70;;;1.80;;
25345;SDS011;13300;51.032;3.710;2023-01-15T17:07:56;4.85;;;1.90;;
25345;SDS011;13300;51.032;3.710;2023-01-15T17:10:25;7.80;;;2.25;;
25345;SDS011;13300;51.032;3.710;2023-01-15T17:13:15;4.57;;;1.90;;
25345;SDS011;13300;51.032;3.710;2023-01-15T17:15:59;7.40;;;2.50;;
25345;SDS011;13300;51.032;3.710;2023-01-15T17:19:03;9.15;;;2.35;;
25345;SDS011;13300;51.032;3.710;2023-01-15T17:22:04;8.38;;;2.47;;
25345;SDS011;13300;51.032;3.710;2023-01-15T17:25:46;10.32;;;2.50;;
25345;SDS011;13300;51.032;3.710;2023-01-15T17:28:21;6.78;;;2.53;;
25345;SDS011;13300;51.032;3.710;2023-01-15T17:31:12;10.23;;;2.35;;
25345;SDS011;13300;51.032;3.710;2023-01-15T17:33:53;7.85;;;2.90;;
25345;SDS011;13300;51.032;3.710;2023-01-15T17:39:59;7.88;;;3.47;;
25345;SDS011;13300;51.032;3.710;2023-01-15T17:42:51;10.93;;;4.53;;
25345;SDS011;13300;51.032;3.710;2023-01-15T17:45:24;8.73;;;4.10;;
25345;SDS011;13300;51.032;3.710;2023-01-15T17:47:56;11.65;;;4.47;;
25345;SDS011;13300;51.032;3.710;2023-01-15T17:53:59;10.27;;;3.80;;
25345;SDS011;13300;51.032;3.710;2023-01-15T17:56:34;12.50;;;4.57;;
25345;SDS011;13300;51.032;3.710;2023-01-15T17:59:18;9.38;;;4.50;;